createdAt,value
2023-02-12T00:02:59.869Z,96.34
2023-02-12T00:06:02.657Z,95.81
2023-02-12T00:09:04.717Z,95.70
2023-02-12T00:12:06.573Z,95.90
2023-02-12T00:15:08.736Z,95.27
2023-02-12T00:18:10.504Z,95.55
2023-02-12T00:21:14.186Z,95.66
2023-02-12T00:24:15.871Z,95.57
2023-02-12T00:27:17.358Z,95.73
2023-02-12T00:30:19.407Z,95.48
2023-02-12T00:33:21.473Z,96.11
2023-02-12T00:36:26.061Z,96.30
2023-02-12T00:39:27.711Z,96.22
2023-02-12T00:42:30.195Z,95.56
2023-02-12T00:45:32.083Z,95.60
2023-02-12T00:48:35.389Z,96.10
2023-02-12T00:51:37.717Z,96.47
2023-02-12T00:54:39.533Z,96.55
2023-02-12T00:57:41.600Z,97.28
2023-02-12T01:00:43.779Z,97.04
2023-02-12T01:03:45.941Z,96.00
2023-02-12T01:06:47.801Z,96.33
2023-02-12T01:09:50.414Z,97.12
2023-02-12T01:12:52.151Z,97.49
2023-02-12T01:16:12.795Z,97.19
2023-02-12T01:19:14.348Z,97.07
2023-02-12T01:22:16.512Z,97.34
2023-02-12T01:25:20.545Z,97.79
2023-02-12T01:28:22.340Z,98.47
2023-02-12T01:31:27.763Z,99.10
2023-02-12T01:34:29.358Z,98.72
2023-02-12T01:37:31.127Z,99.23
2023-02-12T01:40:32.768Z,98.99
2023-02-12T01:43:38.674Z,98.89
2023-02-12T01:46:41.352Z,98.32
2023-02-12T01:49:47.157Z,98.87
2023-02-12T01:52:54.487Z,99.06
2023-02-12T01:55:59.365Z,98.96
2023-02-12T01:59:02.189Z,99.11
2023-02-12T02:02:06.582Z,99.05
2023-02-12T02:05:08.848Z,98.75
2023-02-12T02:08:12.006Z,99.07
2023-02-12T02:11:32.117Z,99.42
2023-02-12T02:14:36.213Z,99.62
2023-02-12T02:17:51.357Z,99.18
2023-02-12T02:21:41.098Z,99.94
2023-02-12T02:25:04.079Z,99.73
2023-02-12T02:28:36.960Z,99.88
2023-02-12T02:31:44.927Z,99.68
2023-02-12T02:35:05.032Z,99.80
2023-02-12T02:38:29.999Z,99.45
2023-02-12T02:41:50.555Z,99.76
2023-02-12T02:45:03.455Z,99.23
2023-02-12T02:48:08.656Z,99.19
2023-02-12T02:51:21.331Z,99.52
2023-02-12T02:54:40.532Z,99.09
2023-02-12T02:57:48.695Z,99.41
2023-02-12T03:01:05.924Z,99.58
2023-02-12T03:04:13.197Z,100.00
2023-02-12T03:07:22.068Z,99.69
2023-02-12T03:10:29.724Z,99.81
2023-02-12T03:13:40.824Z,99.51
2023-02-12T03:16:59.918Z,99.99
2023-02-12T03:20:19.631Z,100.00
2023-02-12T03:23:38.073Z,99.92
2023-02-12T03:26:48.846Z,100.00
2023-02-12T03:29:50.841Z,100.00
2023-02-12T03:33:21.439Z,100.00
2023-02-12T03:36:28.969Z,100.00
2023-02-12T03:39:54.979Z,100.00
2023-02-12T03:43:12.377Z,100.00
2023-02-12T03:46:32.296Z,100.00
2023-02-12T03:49:45.708Z,100.00
2023-02-12T03:52:50.294Z,100.00
2023-02-12T03:55:57.864Z,100.00
2023-02-12T03:59:00.255Z,100.00
2023-02-12T04:02:02.313Z,100.00
2023-02-12T04:05:07.712Z,100.00
2023-02-12T04:08:12.656Z,100.00
2023-02-12T04:11:21.387Z,100.00
2023-02-12T04:14:38.078Z,100.00
2023-02-12T04:18:07.313Z,100.00
2023-02-12T04:21:46.277Z,100.00
2023-02-12T04:25:05.161Z,100.00
2023-02-12T04:28:25.378Z,100.00
2023-02-12T04:31:38.826Z,100.00
2023-02-12T04:34:59.105Z,100.00
2023-02-12T04:38:21.678Z,100.00
2023-02-12T04:41:25.069Z,100.00
2023-02-12T04:44:29.361Z,100.00
2023-02-12T04:47:31.447Z,100.00
2023-02-12T04:50:43.459Z,100.00
2023-02-12T04:53:45.074Z,100.00
2023-02-12T04:56:47.385Z,100.00
2023-02-12T04:59:49.459Z,100.00
2023-02-12T05:02:50.929Z,100.00
2023-02-12T05:05:52.540Z,100.00
2023-02-12T05:08:54.183Z,100.00
2023-02-12T05:11:55.836Z,100.00
2023-02-12T05:14:58.330Z,100.00
2023-02-12T05:18:00.188Z,100.00
2023-02-12T05:21:03.934Z,100.00
2023-02-12T05:24:05.819Z,100.00
2023-02-12T05:27:09.340Z,100.00
2023-02-12T05:30:11.272Z,100.00
2023-02-12T05:33:12.838Z,100.00
2023-02-12T05:36:17.635Z,100.00
2023-02-12T05:39:19.283Z,100.00
2023-02-12T05:42:20.717Z,100.00
2023-02-12T05:45:28.132Z,100.00
2023-02-12T05:48:30.745Z,100.00
2023-02-12T05:51:33.227Z,100.00
2023-02-12T05:54:34.726Z,100.00
2023-02-12T05:57:36.700Z,100.00
2023-02-12T06:00:38.384Z,100.00
2023-02-12T06:03:40.271Z,100.00
2023-02-12T06:06:44.590Z,100.00
2023-02-12T06:09:46.576Z,100.00
2023-02-12T06:12:48.057Z,100.00
2023-02-12T06:15:50.034Z,100.00
2023-02-12T06:18:52.940Z,100.00
2023-02-12T06:21:54.589Z,100.00
2023-02-12T06:24:56.608Z,100.00
2023-02-12T06:27:58.509Z,100.00
2023-02-12T06:31:00.817Z,100.00
2023-02-12T06:34:06.203Z,100.00
2023-02-12T06:37:08.036Z,100.00
2023-02-12T06:40:09.914Z,100.00
2023-02-12T06:43:11.938Z,100.00
2023-02-12T06:46:14.513Z,100.00
2023-02-12T06:49:17.159Z,100.00
2023-02-12T06:52:18.785Z,100.00
2023-02-12T06:55:20.397Z,100.00
2023-02-12T06:58:21.953Z,100.00
2023-02-12T07:01:28.950Z,100.00
2023-02-12T07:04:30.857Z,100.00
2023-02-12T07:07:32.500Z,100.00
2023-02-12T07:10:33.972Z,100.00
2023-02-12T07:13:35.874Z,100.00
2023-02-12T07:16:37.396Z,100.00
2023-02-12T07:19:38.942Z,100.00
2023-02-12T07:22:40.758Z,100.00
2023-02-12T07:25:42.386Z,100.00
2023-02-12T07:28:44.287Z,100.00
2023-02-12T07:31:46.159Z,100.00
2023-02-12T07:34:47.681Z,100.00
2023-02-12T07:37:49.168Z,100.00
2023-02-12T07:40:50.826Z,100.00
2023-02-12T07:44:03.524Z,100.00
2023-02-12T07:47:06.095Z,99.67
2023-02-12T07:50:08.609Z,99.48
2023-02-12T07:53:10.093Z,98.86
2023-02-12T07:56:14.790Z,98.98
2023-02-12T07:59:18.394Z,98.74
2023-02-12T08:02:19.965Z,98.54
2023-02-12T08:05:21.473Z,98.51
2023-02-12T08:08:22.915Z,97.61
2023-02-12T08:11:26.134Z,97.37
2023-02-12T08:14:28.151Z,97.11
2023-02-12T08:17:29.729Z,95.53
2023-02-12T08:20:34.233Z,93.03
2023-02-12T08:23:36.385Z,91.97
2023-02-12T08:26:39.519Z,90.96
2023-02-12T08:29:41.029Z,89.69
2023-02-12T08:32:42.509Z,88.80
2023-02-12T08:35:44.029Z,89.21
2023-02-12T08:38:46.844Z,89.66
2023-02-12T08:41:49.002Z,89.76
2023-02-12T08:44:50.504Z,88.97
2023-02-12T08:47:52.018Z,87.35
2023-02-12T08:50:53.468Z,85.07
2023-02-12T08:53:57.369Z,82.56
2023-02-12T08:57:01.584Z,82.24
2023-02-12T09:00:04.052Z,82.18
2023-02-12T09:03:05.537Z,81.80
2023-02-12T09:06:07.820Z,81.36
2023-02-12T09:09:09.507Z,81.25
2023-02-12T09:12:11.012Z,81.37
2023-02-12T09:15:12.540Z,80.91
2023-02-12T09:18:15.265Z,80.64
2023-02-12T09:21:16.868Z,80.79
2023-02-12T09:24:18.471Z,80.52
2023-02-12T09:27:19.925Z,79.64
2023-02-12T09:30:21.673Z,80.06
2023-02-12T09:33:23.147Z,79.73
2023-02-12T09:36:24.795Z,79.61
2023-02-12T09:39:30.420Z,79.15
2023-02-12T09:42:51.972Z,79.16
2023-02-12T09:46:02.719Z,78.29
2023-02-12T09:49:45.362Z,77.74
2023-02-12T09:52:47.033Z,78.26
2023-02-12T09:55:48.524Z,77.61
2023-02-12T09:58:53.980Z,78.18
2023-02-12T10:01:55.528Z,79.46
2023-02-12T10:05:02.014Z,80.00
2023-02-12T10:08:47.493Z,79.96
2023-02-12T10:12:24.167Z,79.13
2023-02-12T10:15:37.878Z,78.55
2023-02-12T10:19:10.479Z,78.76
2023-02-12T10:22:22.626Z,77.47
2023-02-12T10:25:29.215Z,77.30
2023-02-12T10:28:39.187Z,77.03
2023-02-12T10:31:44.223Z,76.96
2023-02-12T10:34:49.670Z,76.94
2023-02-12T10:37:58.312Z,76.41
2023-02-12T10:41:01.977Z,75.73
2023-02-12T10:44:03.588Z,74.72
2023-02-12T10:47:05.526Z,74.87
2023-02-12T10:50:20.011Z,75.10
2023-02-12T10:53:26.150Z,73.82
2023-02-12T10:56:27.865Z,74.66
2023-02-12T10:59:29.447Z,74.40
2023-02-12T11:02:33.543Z,75.07
2023-02-12T11:05:36.903Z,73.79
2023-02-12T11:08:39.468Z,73.55
2023-02-12T11:11:41.053Z,72.91
2023-02-12T11:14:55.928Z,73.59
2023-02-12T11:18:05.122Z,72.92
2023-02-12T11:21:12.509Z,72.48
2023-02-12T11:24:26.395Z,72.52
2023-02-12T11:27:30.782Z,72.63
2023-02-12T11:30:33.397Z,72.52
2023-02-12T11:33:37.189Z,72.22
2023-02-12T11:36:43.937Z,71.37
2023-02-12T11:39:51.042Z,71.41
2023-02-12T11:42:56.050Z,71.38
2023-02-12T11:45:59.389Z,71.17
2023-02-12T11:49:02.100Z,70.58
2023-02-12T11:52:04.825Z,70.70
2023-02-12T11:55:22.968Z,69.47
2023-02-12T11:58:26.384Z,69.80
2023-02-12T12:01:33.378Z,69.28
2023-02-12T12:04:37.076Z,69.40
2023-02-12T12:07:43.730Z,68.90
2023-02-12T12:10:53.970Z,68.60
2023-02-12T12:14:09.141Z,68.57
2023-02-12T12:17:33.754Z,68.40
2023-02-12T12:20:55.385Z,68.39
2023-02-12T12:24:05.313Z,67.62
2023-02-12T12:27:45.410Z,68.10
2023-02-12T12:30:50.586Z,67.57
2023-02-12T12:34:01.181Z,67.63
2023-02-12T12:37:21.501Z,67.34
2023-02-12T12:40:51.328Z,67.31
2023-02-12T12:44:19.238Z,67.16
2023-02-12T12:47:34.780Z,67.15
2023-02-12T12:51:12.067Z,67.23
2023-02-12T12:54:39.308Z,67.09
2023-02-12T12:58:10.506Z,66.92
2023-02-12T13:01:40.102Z,67.07
2023-02-12T13:04:56.159Z,66.90
2023-02-12T13:08:11.776Z,66.53
2023-02-12T13:11:22.280Z,66.90
2023-02-12T13:14:46.846Z,66.32
2023-02-12T13:18:00.134Z,66.22
2023-02-12T13:21:14.762Z,66.58
2023-02-12T13:24:29.262Z,66.41
2023-02-12T13:27:43.012Z,66.45
2023-02-12T13:30:52.144Z,66.23
2023-02-12T13:33:58.308Z,65.93
2023-02-12T13:37:06.564Z,66.36
2023-02-12T13:40:24.348Z,66.54
2023-02-12T13:43:44.083Z,66.89
2023-02-12T13:47:05.815Z,66.88
2023-02-12T13:50:20.058Z,66.82
2023-02-12T13:53:58.763Z,66.46
2023-02-12T13:57:13.592Z,66.56
2023-02-12T14:01:08.571Z,67.15
2023-02-12T14:04:24.793Z,66.74
2023-02-12T14:07:45.677Z,66.41
2023-02-12T14:11:05.197Z,66.72
2023-02-12T14:14:06.797Z,66.90
2023-02-12T14:17:31.419Z,67.15
2023-02-12T14:20:36.460Z,66.51
2023-02-12T14:23:39.224Z,66.94
2023-02-12T14:26:41.030Z,66.71
2023-02-12T14:30:20.212Z,66.29
2023-02-12T14:33:25.655Z,66.11
2023-02-12T14:36:33.052Z,65.87
2023-02-12T14:39:34.595Z,65.46
2023-02-12T14:42:36.994Z,65.47
2023-02-12T14:45:38.547Z,65.34
2023-02-12T14:48:56.182Z,65.51
2023-02-12T14:52:07.309Z,65.01
2023-02-12T14:55:22.320Z,64.85
2023-02-12T14:58:25.711Z,64.36
2023-02-12T15:01:32.991Z,63.17
2023-02-12T15:04:38.213Z,64.91
2023-02-12T15:07:52.795Z,65.55
2023-02-12T15:11:17.908Z,65.55
2023-02-12T15:14:24.262Z,66.43
2023-02-12T15:17:29.833Z,66.75
2023-02-12T15:20:38.236Z,66.70
2023-02-12T15:23:43.107Z,67.84
2023-02-12T15:26:50.369Z,67.91
2023-02-12T15:29:53.870Z,67.76
2023-02-12T15:32:57.966Z,68.20
2023-02-12T15:36:02.009Z,68.82
2023-02-12T15:39:08.253Z,67.52
2023-02-12T15:42:29.829Z,66.42
2023-02-12T15:45:33.791Z,65.36
2023-02-12T15:48:37.220Z,66.04
2023-02-12T15:51:41.660Z,66.42
2023-02-12T15:54:45.263Z,68.01
2023-02-12T15:57:53.310Z,68.87
2023-02-12T16:01:00.368Z,69.83
2023-02-12T16:04:05.294Z,70.72
2023-02-12T16:07:08.004Z,71.65
2023-02-12T16:10:14.266Z,71.67
2023-02-12T16:13:25.779Z,72.21
2023-02-12T16:16:30.184Z,73.05
2023-02-12T16:19:40.194Z,74.55
2023-02-12T16:22:44.243Z,76.06
2023-02-12T16:25:55.069Z,77.47
2023-02-12T16:28:58.168Z,78.79
2023-02-12T16:32:03.477Z,79.80
2023-02-12T16:35:11.166Z,81.57
2023-02-12T16:38:44.864Z,82.26
2023-02-12T16:41:56.998Z,82.85
2023-02-12T16:44:58.591Z,83.97
2023-02-12T16:48:06.742Z,84.88
2023-02-12T16:51:24.943Z,85.18
2023-02-12T16:54:34.866Z,85.81
2023-02-12T16:57:36.351Z,86.89
2023-02-12T17:00:38.956Z,87.40
2023-02-12T17:03:40.675Z,88.02
2023-02-12T17:06:43.556Z,88.58
2023-02-12T17:09:45.170Z,88.83
2023-02-12T17:12:51.806Z,90.00
2023-02-12T17:15:58.866Z,90.05
2023-02-12T17:19:00.880Z,90.22
2023-02-12T17:22:04.072Z,90.81
2023-02-12T17:25:05.804Z,91.38
2023-02-12T17:28:08.774Z,92.24
2023-02-12T17:31:10.800Z,92.67
2023-02-12T17:34:12.248Z,93.26
2023-02-12T17:37:13.744Z,93.70
2023-02-12T17:40:15.231Z,94.07
2023-02-12T17:43:17.024Z,94.25
2023-02-12T17:46:21.620Z,94.64
2023-02-12T17:49:23.124Z,94.83
2023-02-12T17:52:24.587Z,95.52
2023-02-12T17:55:26.075Z,95.15
2023-02-12T17:58:27.677Z,96.22
2023-02-12T18:01:29.266Z,95.75
2023-02-12T18:04:35.716Z,96.89
2023-02-12T18:07:37.519Z,96.90
2023-02-12T18:10:43.197Z,97.61
2023-02-12T18:13:45.123Z,98.42
2023-02-12T18:16:47.000Z,98.30
2023-02-12T18:19:49.343Z,99.21
2023-02-12T18:22:50.854Z,99.90
2023-02-12T18:25:52.345Z,100.00
2023-02-12T18:28:54.124Z,100.00
2023-02-12T18:31:55.680Z,100.00
2023-02-12T18:34:57.238Z,100.00
2023-02-12T18:37:58.969Z,100.00
2023-02-12T18:41:05.073Z,100.00
2023-02-12T18:44:06.609Z,100.00
2023-02-12T18:47:08.248Z,100.00
2023-02-12T18:50:10.158Z,100.00
2023-02-12T18:53:11.642Z,100.00
2023-02-12T18:56:13.317Z,100.00
2023-02-12T18:59:15.651Z,100.00
2023-02-12T19:02:17.306Z,100.00
2023-02-12T19:05:18.752Z,100.00
2023-02-12T19:08:20.208Z,100.00
2023-02-12T19:11:21.800Z,100.00
2023-02-12T19:14:25.457Z,100.00
2023-02-12T19:17:27.008Z,100.00
2023-02-12T19:20:28.559Z,100.00
2023-02-12T19:23:30.048Z,100.00
2023-02-12T19:26:34.212Z,100.00
2023-02-12T19:29:35.684Z,100.00
2023-02-12T19:32:38.080Z,100.00
2023-02-12T19:35:39.537Z,100.00
2023-02-12T19:38:41.275Z,100.00
2023-02-12T19:41:43.291Z,100.00
2023-02-12T19:44:46.671Z,100.00
2023-02-12T19:47:50.668Z,100.00
2023-02-12T19:50:52.194Z,100.00
2023-02-12T19:53:54.180Z,100.00
2023-02-12T19:56:55.760Z,100.00
2023-02-12T19:59:57.292Z,100.00
2023-02-12T20:02:58.750Z,100.00
2023-02-12T20:06:02.179Z,100.00
2023-02-12T20:09:04.663Z,100.00
2023-02-12T20:12:06.426Z,100.00
2023-02-12T20:15:08.344Z,100.00
2023-02-12T20:18:10.770Z,100.00
2023-02-12T20:21:16.051Z,100.00
2023-02-12T20:24:17.616Z,100.00
2023-02-12T20:27:19.123Z,100.00
2023-02-12T20:30:20.834Z,100.00
2023-02-12T20:33:22.360Z,100.00
2023-02-12T20:36:25.163Z,100.00
2023-02-12T20:39:26.708Z,100.00
2023-02-12T20:42:28.185Z,100.00
2023-02-12T20:45:29.713Z,100.00
2023-02-12T20:48:31.425Z,100.00
2023-02-12T20:51:33.107Z,100.00
2023-02-12T20:54:34.694Z,100.00
2023-02-12T20:57:36.218Z,100.00
2023-02-12T21:00:37.807Z,100.00
2023-02-12T21:03:39.440Z,100.00
2023-02-12T21:06:41.628Z,100.00
2023-02-12T21:09:43.191Z,100.00
2023-02-12T21:12:44.741Z,100.00
2023-02-12T21:15:46.348Z,100.00
2023-02-12T21:18:48.668Z,100.00
2023-02-12T21:21:50.252Z,100.00
2023-02-12T21:24:51.767Z,100.00
2023-02-12T21:27:53.271Z,100.00
2023-02-12T21:30:54.719Z,100.00
2023-02-12T21:33:57.912Z,100.00
2023-02-12T21:36:59.390Z,100.00
2023-02-12T21:40:00.904Z,100.00
2023-02-12T21:43:02.442Z,100.00
2023-02-12T21:46:04.693Z,100.00
2023-02-12T21:49:07.258Z,100.00
2023-02-12T21:52:08.842Z,100.00
2023-02-12T21:55:10.364Z,100.00
2023-02-12T21:58:11.889Z,100.00
2023-02-12T22:01:25.659Z,100.00
2023-02-12T22:04:28.068Z,100.00
2023-02-12T22:07:29.570Z,100.00
2023-02-12T22:10:31.269Z,100.00
2023-02-12T22:13:33.586Z,100.00
2023-02-12T22:16:36.459Z,100.00
2023-02-12T22:19:38.123Z,100.00
2023-02-12T22:22:40.150Z,100.00
2023-02-12T22:25:41.670Z,100.00
2023-02-12T22:28:44.465Z,100.00
2023-02-12T22:31:47.597Z,100.00
2023-02-12T22:34:49.317Z,100.00
2023-02-12T22:37:50.821Z,100.00
2023-02-12T22:40:53.137Z,100.00
2023-02-12T22:43:55.161Z,100.00
2023-02-12T22:46:57.028Z,100.00
2023-02-12T22:49:59.825Z,100.00
2023-02-12T22:53:01.428Z,100.00
2023-02-12T22:56:05.115Z,100.00
2023-02-12T22:59:06.945Z,100.00
2023-02-12T23:02:09.361Z,100.00
2023-02-12T23:05:10.827Z,100.00
2023-02-12T23:08:12.393Z,100.00
2023-02-12T23:11:13.923Z,100.00
2023-02-12T23:14:15.932Z,100.00
2023-02-12T23:17:17.440Z,100.00
2023-02-12T23:20:19.058Z,100.00
2023-02-12T23:23:21.874Z,100.00
2023-02-12T23:26:23.480Z,100.00
2023-02-12T23:29:25.069Z,100.00
2023-02-12T23:32:26.538Z,100.00
2023-02-12T23:35:28.136Z,100.00
2023-02-12T23:38:29.646Z,100.00
2023-02-12T23:41:31.406Z,100.00
2023-02-12T23:44:32.933Z,100.00
2023-02-12T23:47:34.393Z,100.00
2023-02-12T23:50:35.898Z,100.00
2023-02-12T23:53:37.429Z,100.00
2023-02-12T23:56:39.347Z,100.00
2023-02-12T23:59:40.827Z,100.00
